Huvudsida
METAR-TAF:

METAR-TAF

Flygplatser :

Bamako, Mali

latitud: 12-32N, longitud: 007-57W, höjd: 380 m

Aktuellt väderrapport

Denna rapport gjordes för 35 minuter sedan, klockan 21:00 UTC
Vind 6 kt från ost/nordost
Temperatur 26°C
Fuktighet 24%
Tryck 1016 hPa
Sikt: 6000 m

METAR: GABS 142100Z 07006KT 6000 NSC 26/04 Q1016 NOSIG

Tid: 21:35 (21:35 UTC)

Väderprognos

Denna rapport gjordes för 3 timmar och 45 minuter sedan, klockan 17:50 UTC
Prognos gäller från 14 kl. 18 UTC till 15 kl. 24 UTC
Vind 6 kt från nordost
Sikt 10 km eller mer
Inga moln under 1 500 m eller inga cumulonimbus
Temporärt
från 15 kl. 10 UTC till 15 kl. 14 UTC
Vind 10 kt från ost

TAF: GABS 141750Z 1418/1524 04006KT CAVOK TEMPO 1510/1514 10010KT

Aktuella väderrapporter och prognoser från 4000 flygplatser (METAR- och TAF-rapporter).

De tillgängliga stationerna syns som gula och röda prickar på kartan.

För musen över prickarna för att se namnen på stationerna.

Klicka sedan för att få väderrapporter och prognoser.

För att ändra kartan: Klicka på de gröna knapparna med ett svart kors på för att zooma in; den gröna knappen med ett streck på för att zooma ut; eller på de gröna pilarna för angränsande kartor.


METAR-TAF: